This is the latest recevied weather packets stored in our database for station/object EA5JMY-10. If no packets are shown the sender has not sent any weather packets the latest 10 day(s).
| Time | Temp. | Humidity | Pressure | Rain* | Wind** | Luminosity | Snow |
|---|---|---|---|---|---|---|---|
| 1777721767 | 22.78° C | 63% | 1022.6 hPa | - | - | - | - |
| 1777720867 | 23.89° C | 60% | 1022.6 hPa | - | - | - | - |
| 1777719967 | 23.89° C | 60% | 1022.7 hPa | - | - | - | - |
| 1777719067 | 24.44° C | 55% | 1022.7 hPa | - | - | - | - |
| 1777718167 | 25.56° C | 53% | 1022.8 hPa | - | - | - | - |
| 1777717267 | 24.44° C | 55% | 1023 hPa | - | - | - | - |
| 1777716366 | 27.78° C | 49% | 1023.1 hPa | - | - | - | - |
| 1777715466 | 24.44° C | 60% | 1023 hPa | - | - | - | - |
| 1777714566 | 22.22° C | 64% | 1023.2 hPa | - | - | - | - |
| 1777713666 | 21.67° C | 65% | 1023.3 hPa | - | - | - | - |
| 1777712766 | 22.22° C | 64% | 1023.2 hPa | - | - | - | - |
| 1777711866 | 21.67° C | 70% | 1023.3 hPa | - | - | - | - |
| 1777710966 | 20.56° C | 72% | 1023.3 hPa | - | - | - | - |
| 1777710066 | 20.56° C | 74% | 1023.4 hPa | - | - | - | - |
| 1777709166 | 20° C | 73% | 1023.5 hPa | - | - | - | - |
| 1777708266 | 20° C | 69% | 1023.4 hPa | - | - | - | - |
| 1777707365 | 20° C | 69% | 1023.4 hPa | - | - | - | - |
| 1777706465 | 20.56° C | 68% | 1023.2 hPa | - | - | - | - |
| 1777705565 | 20.56° C | 70% | 1023.2 hPa | - | - | - | - |
| 1777704665 | 20° C | 69% | 1023.2 hPa | - | - | - | - |
| 1777703765 | 20° C | 69% | 1023.4 hPa | - | - | - | - |
| 1777702865 | 19.44° C | 70% | 1023.4 hPa | - | - | - | - |
| 1777701965 | 20° C | 68% | 1023.4 hPa | - | - | - | - |
| 1777701064 | 20° C | 68% | 1023.2 hPa | - | - | - | - |
| 1777700164 | 20° C | 68% | 1023.2 hPa | - | - | - | - |
* Rain since midnight (hover to see other rain measurements)
** Current wind speed in m/s (hover to see current wind gust speed)